sensor_id;sensor_type;location;lat;lon;timestamp;temperature;humidity
47845;DHT22;33605;48.822;8.796;2023-04-19T06:26:00;8.70;44.60
47845;DHT22;33605;48.822;8.796;2023-04-19T06:28:26;13.30;56.20
47845;DHT22;33605;48.822;8.796;2023-04-19T06:30:52;13.20;56.10
47845;DHT22;33605;48.822;8.796;2023-04-19T06:33:17;13.30;56.30
47845;DHT22;33605;48.822;8.796;2023-04-19T06:35:43;13.30;56.20
47845;DHT22;33605;48.822;8.796;2023-04-19T06:38:09;13.30;56.00
47845;DHT22;33605;48.822;8.796;2023-04-19T06:40:34;13.30;55.90
47845;DHT22;33605;48.822;8.796;2023-04-19T06:43:00;13.30;56.00
47845;DHT22;33605;48.822;8.796;2023-04-19T06:45:26;13.30;56.10
47845;DHT22;33605;48.822;8.796;2023-04-19T06:47:51;13.30;56.10
47845;DHT22;33605;48.822;8.796;2023-04-19T06:50:17;13.40;56.20
47845;DHT22;33605;48.822;8.796;2023-04-19T06:52:43;13.40;56.30
47845;DHT22;33605;48.822;8.796;2023-04-19T06:55:08;13.40;56.20
47845;DHT22;33605;48.822;8.796;2023-04-19T06:57:34;13.40;56.10
47845;DHT22;33605;48.822;8.796;2023-04-19T07:00:00;13.40;55.90
47845;DHT22;33605;48.822;8.796;2023-04-19T07:02:25;13.50;55.80
47845;DHT22;33605;48.822;8.796;2023-04-19T07:04:51;13.50;55.80
47845;DHT22;33605;48.822;8.796;2023-04-19T07:58:32;13.50;56.10
47845;DHT22;33605;48.822;8.796;2023-04-19T08:01:02;14.10;55.20
47845;DHT22;33605;48.822;8.796;2023-04-19T11:16:22;14.20;55.60
47845;DHT22;33605;48.822;8.796;2023-04-19T11:18:48;16.20;47.70
47845;DHT22;33605;48.822;8.796;2023-04-19T11:21:17;16.20;47.90
47845;DHT22;33605;48.822;8.796;2023-04-19T11:23:42;16.10;47.90
47845;DHT22;33605;48.822;8.796;2023-04-19T11:26:11;16.00;47.60
47845;DHT22;33605;48.822;8.796;2023-04-19T11:28:38;16.10;47.90
47845;DHT22;33605;48.822;8.796;2023-04-19T12:10:58;16.00;47.80
47845;DHT22;33605;48.822;8.796;2023-04-19T12:13:24;15.80;50.40
47845;DHT22;33605;48.822;8.796;2023-04-19T12:15:50;15.70;50.50
47845;DHT22;33605;48.822;8.796;2023-04-19T12:18:16;15.70;50.80
47845;DHT22;33605;48.822;8.796;2023-04-19T12:20:47;15.70;51.00
47845;DHT22;33605;48.822;8.796;2023-04-19T12:52:36;15.70;51.90
47845;DHT22;33605;48.822;8.796;2023-04-19T12:57:29;15.30;54.30
47845;DHT22;33605;48.822;8.796;2023-04-19T12:59:54;15.10;54.30
47845;DHT22;33605;48.822;8.796;2023-04-19T13:02:23;15.10;54.70
47845;DHT22;33605;48.822;8.796;2023-04-19T13:04:48;15.00;54.90
47845;DHT22;33605;48.822;8.796;2023-04-19T13:07:14;15.00;55.00
47845;DHT22;33605;48.822;8.796;2023-04-19T13:09:40;14.90;55.20
47845;DHT22;33605;48.822;8.796;2023-04-19T13:12:06;14.90;55.60
47845;DHT22;33605;48.822;8.796;2023-04-19T13:14:34;14.90;55.90
47845;DHT22;33605;48.822;8.796;2023-04-19T13:17:00;14.80;55.90
47845;DHT22;33605;48.822;8.796;2023-04-19T13:19:26;14.80;56.00
47845;DHT22;33605;48.822;8.796;2023-04-19T13:21:52;14.70;55.90
47845;DHT22;33605;48.822;8.796;2023-04-19T13:24:18;14.70;55.90
47845;DHT22;33605;48.822;8.796;2023-04-19T13:26:43;14.60;55.80
47845;DHT22;33605;48.822;8.796;2023-04-19T13:29:12;14.60;55.90
47845;DHT22;33605;48.822;8.796;2023-04-19T13:31:38;14.60;56.10
47845;DHT22;33605;48.822;8.796;2023-04-19T13:34:04;14.60;56.30
47845;DHT22;33605;48.822;8.796;2023-04-19T13:36:30;14.50;56.30
47845;DHT22;33605;48.822;8.796;2023-04-19T13:38:56;14.50;56.30
47845;DHT22;33605;48.822;8.796;2023-04-19T13:41:21;14.40;56.60
47845;DHT22;33605;48.822;8.796;2023-04-19T13:43:47;14.40;56.60
47845;DHT22;33605;48.822;8.796;2023-04-19T13:46:13;14.30;56.50
47845;DHT22;33605;48.822;8.796;2023-04-19T13:48:39;14.30;56.40
47845;DHT22;33605;48.822;8.796;2023-04-19T13:51:05;14.30;56.50
47845;DHT22;33605;48.822;8.796;2023-04-19T13:53:31;14.30;56.40
47845;DHT22;33605;48.822;8.796;2023-04-19T13:55:57;14.30;56.50
47845;DHT22;33605;48.822;8.796;2023-04-19T13:58:22;14.30;56.70
47845;DHT22;33605;48.822;8.796;2023-04-19T14:00:51;14.30;56.70
47845;DHT22;33605;48.822;8.796;2023-04-19T14:03:17;14.30;56.40
47845;DHT22;33605;48.822;8.796;2023-04-19T14:05:42;14.30;56.50
47845;DHT22;33605;48.822;8.796;2023-04-19T14:08:08;14.30;56.50
47845;DHT22;33605;48.822;8.796;2023-04-19T14:10:35;14.30;56.70
47845;DHT22;33605;48.822;8.796;2023-04-19T14:13:01;14.30;56.80
47845;DHT22;33605;48.822;8.796;2023-04-19T14:15:27;14.30;56.80
47845;DHT22;33605;48.822;8.796;2023-04-19T14:17:53;14.30;56.80
47845;DHT22;33605;48.822;8.796;2023-04-19T14:20:18;14.30;56.80
47845;DHT22;33605;48.822;8.796;2023-04-19T14:22:45;14.30;56.70
47845;DHT22;33605;48.822;8.796;2023-04-19T14:25:11;14.30;56.50
47845;DHT22;33605;48.822;8.796;2023-04-19T14:27:40;14.30;56.50
47845;DHT22;33605;48.822;8.796;2023-04-19T14:30:06;14.30;56.60
47845;DHT22;33605;48.822;8.796;2023-04-19T14:32:32;14.40;56.80
47845;DHT22;33605;48.822;8.796;2023-04-19T14:34:58;14.40;56.70
47845;DHT22;33605;48.822;8.796;2023-04-19T14:37:23;14.40;56.30
47845;DHT22;33605;48.822;8.796;2023-04-19T14:39:49;14.40;56.10
47845;DHT22;33605;48.822;8.796;2023-04-19T14:42:15;14.40;56.10
47845;DHT22;33605;48.822;8.796;2023-04-19T14:44:40;14.40;56.00
47845;DHT22;33605;48.822;8.796;2023-04-19T14:47:06;14.40;55.70
47845;DHT22;33605;48.822;8.796;2023-04-19T14:49:32;14.40;56.00
47845;DHT22;33605;48.822;8.796;2023-04-19T14:51:57;14.40;55.30
47845;DHT22;33605;48.822;8.796;2023-04-19T14:54:23;14.40;55.90
47845;DHT22;33605;48.822;8.796;2023-04-19T14:56:49;14.40;55.30
47845;DHT22;33605;48.822;8.796;2023-04-19T14:59:15;14.40;55.10
47845;DHT22;33605;48.822;8.796;2023-04-19T15:01:40;14.40;55.10
47845;DHT22;33605;48.822;8.796;2023-04-19T15:04:06;14.40;55.00
47845;DHT22;33605;48.822;8.796;2023-04-19T15:06:32;14.40;55.20
47845;DHT22;33605;48.822;8.796;2023-04-19T15:08:58;14.50;55.70
47845;DHT22;33605;48.822;8.796;2023-04-19T15:11:23;14.40;55.60
47845;DHT22;33605;48.822;8.796;2023-04-19T15:13:50;14.50;55.50
47845;DHT22;33605;48.822;8.796;2023-04-19T15:16:16;14.50;55.50
47845;DHT22;33605;48.822;8.796;2023-04-19T15:18:41;14.50;55.20
47845;DHT22;33605;48.822;8.796;2023-04-19T15:21:07;14.50;55.10
47845;DHT22;33605;48.822;8.796;2023-04-19T15:23:32;14.50;55.10
47845;DHT22;33605;48.822;8.796;2023-04-19T15:25:59;14.50;55.00
47845;DHT22;33605;48.822;8.796;2023-04-19T15:28:25;14.60;55.20
47845;DHT22;33605;48.822;8.796;2023-04-19T15:30:59;14.60;55.30
47845;DHT22;33605;48.822;8.796;2023-04-19T15:33:25;14.60;55.60
47845;DHT22;33605;48.822;8.796;2023-04-19T15:35:52;14.70;55.70
47845;DHT22;33605;48.822;8.796;2023-04-19T15:38:17;14.60;55.40
47845;DHT22;33605;48.822;8.796;2023-04-19T15:40:43;14.70;55.60
47845;DHT22;33605;48.822;8.796;2023-04-19T15:43:08;14.80;56.00
47845;DHT22;33605;48.822;8.796;2023-04-19T15:45:34;14.80;56.00
47845;DHT22;33605;48.822;8.796;2023-04-19T17:45:22;14.90;56.10
47845;DHT22;33605;48.822;8.796;2023-04-19T17:47:49;15.10;39.40
47845;DHT22;33605;48.822;8.796;2023-04-19T17:50:15;15.00;38.90
47845;DHT22;33605;48.822;8.796;2023-04-19T17:52:41;15.00;38.90
47845;DHT22;33605;48.822;8.796;2023-04-19T17:55:07;15.00;38.50
47845;DHT22;33605;48.822;8.796;2023-04-19T17:57:33;15.00;38.50
47845;DHT22;33605;48.822;8.796;2023-04-19T17:59:59;14.90;38.20
47845;DHT22;33605;48.822;8.796;2023-04-19T18:02:26;14.90;38.20
47845;DHT22;33605;48.822;8.796;2023-04-19T18:04:51;14.90;37.70
47845;DHT22;33605;48.822;8.796;2023-04-19T18:07:17;14.90;37.10
47845;DHT22;33605;48.822;8.796;2023-04-19T18:09:43;14.90;36.80
47845;DHT22;33605;48.822;8.796;2023-04-19T18:12:08;14.80;36.80
47845;DHT22;33605;48.822;8.796;2023-04-19T18:14:34;14.80;36.50
47845;DHT22;33605;48.822;8.796;2023-04-19T18:17:00;14.80;36.30
47845;DHT22;33605;48.822;8.796;2023-04-19T18:29:16;14.80;35.90
47845;DHT22;33605;48.822;8.796;2023-04-19T18:31:43;14.60;35.90
47845;DHT22;33605;48.822;8.796;2023-04-19T18:34:09;14.60;35.20
47845;DHT22;33605;48.822;8.796;2023-04-19T18:36:34;14.60;35.00
47845;DHT22;33605;48.822;8.796;2023-04-19T18:39:00;14.50;35.00
47845;DHT22;33605;48.822;8.796;2023-04-19T18:41:25;14.50;34.90
47845;DHT22;33605;48.822;8.796;2023-04-19T18:43:51;14.40;34.70
47845;DHT22;33605;48.822;8.796;2023-04-19T18:46:19;14.40;34.70
47845;DHT22;33605;48.822;8.796;2023-04-19T18:48:45;14.30;35.00
47845;DHT22;33605;48.822;8.796;2023-04-19T18:51:11;14.30;34.90
47845;DHT22;33605;48.822;8.796;2023-04-19T18:53:37;14.30;34.90
47845;DHT22;33605;48.822;8.796;2023-04-19T18:56:03;14.20;35.00
47845;DHT22;33605;48.822;8.796;2023-04-19T18:58:29;14.20;35.00
47845;DHT22;33605;48.822;8.796;2023-04-19T19:00:55;14.20;34.90
47845;DHT22;33605;48.822;8.796;2023-04-19T19:03:22;14.10;34.70
47845;DHT22;33605;48.822;8.796;2023-04-19T19:05:49;14.10;34.30
47845;DHT22;33605;48.822;8.796;2023-04-19T19:08:15;14.00;33.80
47845;DHT22;33605;48.822;8.796;2023-04-19T19:10:41;14.00;33.80
47845;DHT22;33605;48.822;8.796;2023-04-19T19:13:06;13.90;33.70
47845;DHT22;33605;48.822;8.796;2023-04-19T19:15:32;13.80;33.70
47845;DHT22;33605;48.822;8.796;2023-04-19T19:18:03;13.80;33.70
47845;DHT22;33605;48.822;8.796;2023-04-19T19:20:29;13.70;33.60
47845;DHT22;33605;48.822;8.796;2023-04-19T19:22:55;13.60;33.70
47845;DHT22;33605;48.822;8.796;2023-04-19T19:25:21;13.60;33.80
47845;DHT22;33605;48.822;8.796;2023-04-19T19:27:47;13.50;33.90
47845;DHT22;33605;48.822;8.796;2023-04-19T19:30:13;13.50;34.00
47845;DHT22;33605;48.822;8.796;2023-04-19T19:32:39;13.40;34.00
47845;DHT22;33605;48.822;8.796;2023-04-19T19:35:08;13.40;34.80
47845;DHT22;33605;48.822;8.796;2023-04-19T19:37:37;13.30;33.90
47845;DHT22;33605;48.822;8.796;2023-04-19T19:40:04;13.30;34.90
47845;DHT22;33605;48.822;8.796;2023-04-19T19:42:31;13.20;34.40
47845;DHT22;33605;48.822;8.796;2023-04-19T19:44:57;13.20;34.60
47845;DHT22;33605;48.822;8.796;2023-04-19T19:47:23;13.20;34.70
47845;DHT22;33605;48.822;8.796;2023-04-19T19:49:49;13.10;34.70
47845;DHT22;33605;48.822;8.796;2023-04-19T19:52:15;13.10;34.80
47845;DHT22;33605;48.822;8.796;2023-04-19T19:54:40;13.00;34.80
47845;DHT22;33605;48.822;8.796;2023-04-19T19:57:06;13.00;35.10
47845;DHT22;33605;48.822;8.796;2023-04-19T19:59:32;13.00;35.00
47845;DHT22;33605;48.822;8.796;2023-04-19T20:01:57;12.90;35.10
47845;DHT22;33605;48.822;8.796;2023-04-19T20:04:23;12.90;35.50
47845;DHT22;33605;48.822;8.796;2023-04-19T20:06:48;12.80;35.40
47845;DHT22;33605;48.822;8.796;2023-04-19T20:09:14;12.70;35.20
47845;DHT22;33605;48.822;8.796;2023-04-19T20:11:39;12.60;35.20
47845;DHT22;33605;48.822;8.796;2023-04-19T20:14:05;12.60;35.40
47845;DHT22;33605;48.822;8.796;2023-04-19T20:16:31;12.60;35.70
47845;DHT22;33605;48.822;8.796;2023-04-19T20:18:57;12.50;35.90
47845;DHT22;33605;48.822;8.796;2023-04-19T20:21:23;12.50;36.10
47845;DHT22;33605;48.822;8.796;2023-04-19T20:23:49;12.40;36.10
47845;DHT22;33605;48.822;8.796;2023-04-19T20:26:15;12.40;36.20
47845;DHT22;33605;48.822;8.796;2023-04-19T20:28:40;12.30;36.40
47845;DHT22;33605;48.822;8.796;2023-04-19T20:31:06;12.30;36.70
47845;DHT22;33605;48.822;8.796;2023-04-19T20:33:31;12.30;36.70
47845;DHT22;33605;48.822;8.796;2023-04-19T20:35:57;12.20;36.60
47845;DHT22;33605;48.822;8.796;2023-04-19T20:38:25;12.10;36.50
47845;DHT22;33605;48.822;8.796;2023-04-19T20:40:54;12.10;36.70
47845;DHT22;33605;48.822;8.796;2023-04-19T20:43:20;12.00;36.70
47845;DHT22;33605;48.822;8.796;2023-04-19T20:45:45;12.00;36.80
47845;DHT22;33605;48.822;8.796;2023-04-19T20:48:11;11.90;36.90
47845;DHT22;33605;48.822;8.796;2023-04-19T20:50:37;11.90;36.90
47845;DHT22;33605;48.822;8.796;2023-04-19T20:53:03;11.90;37.00
47845;DHT22;33605;48.822;8.796;2023-04-19T20:55:28;11.80;37.30
47845;DHT22;33605;48.822;8.796;2023-04-19T20:57:54;11.70;37.50
47845;DHT22;33605;48.822;8.796;2023-04-19T21:00:20;11.70;37.50
47845;DHT22;33605;48.822;8.796;2023-04-19T21:02:46;11.70;37.60
47845;DHT22;33605;48.822;8.796;2023-04-19T21:05:11;11.60;37.70
47845;DHT22;33605;48.822;8.796;2023-04-19T21:07:37;11.60;37.80
47845;DHT22;33605;48.822;8.796;2023-04-19T21:10:03;11.50;37.80
47845;DHT22;33605;48.822;8.796;2023-04-19T21:12:29;11.50;37.90
47845;DHT22;33605;48.822;8.796;2023-04-19T21:14:55;11.50;38.10
47845;DHT22;33605;48.822;8.796;2023-04-19T21:17:20;11.40;38.40
47845;DHT22;33605;48.822;8.796;2023-04-19T21:19:47;11.30;38.70
47845;DHT22;33605;48.822;8.796;2023-04-19T21:22:12;11.20;38.70
47845;DHT22;33605;48.822;8.796;2023-04-19T21:24:38;11.20;39.10
47845;DHT22;33605;48.822;8.796;2023-04-19T21:27:03;11.10;39.20
47845;DHT22;33605;48.822;8.796;2023-04-19T21:29:29;11.10;39.40
47845;DHT22;33605;48.822;8.796;2023-04-19T21:31:55;11.00;39.50
47845;DHT22;33605;48.822;8.796;2023-04-19T21:34:21;11.00;39.30
47845;DHT22;33605;48.822;8.796;2023-04-19T21:36:47;10.90;39.10
47845;DHT22;33605;48.822;8.796;2023-04-19T21:39:12;10.90;39.40
47845;DHT22;33605;48.822;8.796;2023-04-19T21:41:38;10.80;39.40
47845;DHT22;33605;48.822;8.796;2023-04-19T21:44:04;10.80;39.30
47845;DHT22;33605;48.822;8.796;2023-04-19T21:46:29;10.70;39.30
47845;DHT22;33605;48.822;8.796;2023-04-19T21:48:55;10.70;39.30
47845;DHT22;33605;48.822;8.796;2023-04-19T21:51:20;10.70;39.30
47845;DHT22;33605;48.822;8.796;2023-04-19T21:53:46;10.60;39.30
47845;DHT22;33605;48.822;8.796;2023-04-19T21:59:34;10.50;39.60
47845;DHT22;33605;48.822;8.796;2023-04-19T22:02:00;10.40;39.70
47845;DHT22;33605;48.822;8.796;2023-04-19T22:04:25;10.30;39.90
47845;DHT22;33605;48.822;8.796;2023-04-19T22:06:55;10.30;40.20
47845;DHT22;33605;48.822;8.796;2023-04-19T22:09:20;10.20;40.10
47845;DHT22;33605;48.822;8.796;2023-04-19T22:11:46;10.20;39.90
47845;DHT22;33605;48.822;8.796;2023-04-19T22:14:11;10.10;39.70
47845;DHT22;33605;48.822;8.796;2023-04-19T22:16:37;10.10;39.60
47845;DHT22;33605;48.822;8.796;2023-04-19T22:19:03;10.00;39.70
47845;DHT22;33605;48.822;8.796;2023-04-19T22:21:29;10.00;40.00
47845;DHT22;33605;48.822;8.796;2023-04-19T22:23:56;9.90;41.30
47845;DHT22;33605;48.822;8.796;2023-04-19T22:26:22;9.90;41.40
47845;DHT22;33605;48.822;8.796;2023-04-19T22:28:47;9.80;41.40
47845;DHT22;33605;48.822;8.796;2023-04-19T22:31:13;9.80;41.70
47845;DHT22;33605;48.822;8.796;2023-04-19T22:33:39;9.70;41.80
47845;DHT22;33605;48.822;8.796;2023-04-19T22:36:07;9.70;42.00
47845;DHT22;33605;48.822;8.796;2023-04-19T22:38:33;9.60;42.20
47845;DHT22;33605;48.822;8.796;2023-04-19T22:40:58;9.60;42.40
47845;DHT22;33605;48.822;8.796;2023-04-19T22:43:24;9.60;42.50
47845;DHT22;33605;48.822;8.796;2023-04-19T22:45:50;9.50;42.50
47845;DHT22;33605;48.822;8.796;2023-04-19T22:48:16;9.50;42.50
47845;DHT22;33605;48.822;8.796;2023-04-19T22:50:42;9.50;42.30
47845;DHT22;33605;48.822;8.796;2023-04-19T22:53:09;9.40;42.00
47845;DHT22;33605;48.822;8.796;2023-04-19T22:55:40;9.40;41.90
47845;DHT22;33605;48.822;8.796;2023-04-19T22:58:06;9.40;41.80
47845;DHT22;33605;48.822;8.796;2023-04-19T23:00:31;9.30;41.70
47845;DHT22;33605;48.822;8.796;2023-04-19T23:02:57;9.30;41.80
47845;DHT22;33605;48.822;8.796;2023-04-19T23:05:23;9.20;42.10
47845;DHT22;33605;48.822;8.796;2023-04-19T23:07:53;9.20;42.40
47845;DHT22;33605;48.822;8.796;2023-04-19T23:10:19;9.10;42.50
47845;DHT22;33605;48.822;8.796;2023-04-19T23:12:45;9.10;42.50
47845;DHT22;33605;48.822;8.796;2023-04-19T23:15:11;9.10;42.50
47845;DHT22;33605;48.822;8.796;2023-04-19T23:17:38;9.00;42.30
47845;DHT22;33605;48.822;8.796;2023-04-19T23:20:07;9.00;42.50
47845;DHT22;33605;48.822;8.796;2023-04-19T23:22:38;9.00;42.60
47845;DHT22;33605;48.822;8.796;2023-04-19T23:25:04;8.90;42.80
47845;DHT22;33605;48.822;8.796;2023-04-19T23:27:31;8.90;42.80
47845;DHT22;33605;48.822;8.796;2023-04-19T23:29:57;8.90;42.70
47845;DHT22;33605;48.822;8.796;2023-04-19T23:32:22;8.80;42.70
47845;DHT22;33605;48.822;8.796;2023-04-19T23:34:48;8.80;42.70
47845;DHT22;33605;48.822;8.796;2023-04-19T23:37:14;8.80;42.80
47845;DHT22;33605;48.822;8.796;2023-04-19T23:39:39;8.70;42.90
47845;DHT22;33605;48.822;8.796;2023-04-19T23:42:05;8.70;43.10
47845;DHT22;33605;48.822;8.796;2023-04-19T23:44:30;8.60;43.00
47845;DHT22;33605;48.822;8.796;2023-04-19T23:46:56;8.60;43.70
47845;DHT22;33605;48.822;8.796;2023-04-19T23:49:22;8.50;43.30
47845;DHT22;33605;48.822;8.796;2023-04-19T23:51:48;8.50;43.40
47845;DHT22;33605;48.822;8.796;2023-04-19T23:54:15;8.50;44.10
47845;DHT22;33605;48.822;8.796;2023-04-19T23:56:47;8.50;43.20
47845;DHT22;33605;48.822;8.796;2023-04-19T23:59:16;8.40;42.80
